createdAt,value
2018-03-28T00:01:10.431Z,4.80
2018-03-28T00:03:37.958Z,4.80
2018-03-28T00:06:06.231Z,4.90
2018-03-28T00:08:34.532Z,4.90
2018-03-28T00:11:02.055Z,4.80
2018-03-28T00:13:29.591Z,4.90
2018-03-28T00:15:57.159Z,4.90
2018-03-28T00:18:24.722Z,4.90
2018-03-28T00:20:52.467Z,4.90
2018-03-28T00:23:19.990Z,5.00
2018-03-28T00:25:48.266Z,5.00
2018-03-28T00:28:15.805Z,4.90
2018-03-28T00:30:43.319Z,5.00
2018-03-28T00:33:10.841Z,5.00
2018-03-28T00:35:39.128Z,5.00
2018-03-28T00:38:07.420Z,5.00
2018-03-28T00:40:34.942Z,5.00
2018-03-28T00:43:02.471Z,5.00
2018-03-28T00:45:30.435Z,5.10
2018-03-28T00:47:58.815Z,5.10
2018-03-28T00:50:26.329Z,5.10
2018-03-28T00:52:54.613Z,5.10
2018-03-28T00:55:22.123Z,5.00
2018-03-28T00:57:50.419Z,5.10
2018-03-28T01:00:17.938Z,5.10
2018-03-28T01:02:45.464Z,5.10
2018-03-28T01:05:13.749Z,5.20
2018-03-28T01:07:41.270Z,5.10
2018-03-28T01:10:08.787Z,5.20
2018-03-28T01:12:36.313Z,5.20
2018-03-28T01:15:04.594Z,5.20
2018-03-28T01:17:32.894Z,5.20
2018-03-28T01:20:02.354Z,5.20
2018-03-28T01:22:29.869Z,5.30
2018-03-28T01:24:57.390Z,5.30
2018-03-28T01:27:25.674Z,5.30
2018-03-28T01:29:53.962Z,5.30
2018-03-28T01:32:22.246Z,5.40
2018-03-28T01:34:49.819Z,5.30
2018-03-28T01:37:17.327Z,5.40
2018-03-28T01:39:44.882Z,5.40
2018-03-28T01:42:12.382Z,5.40
2018-03-28T01:44:39.907Z,5.50
2018-03-28T01:47:07.418Z,5.50
2018-03-28T01:49:34.947Z,5.50
2018-03-28T01:52:03.239Z,5.50
2018-03-28T01:54:31.551Z,5.60
2018-03-28T01:56:59.080Z,5.50
2018-03-28T01:59:27.377Z,5.60
2018-03-28T02:01:54.901Z,5.60
2018-03-28T02:04:23.201Z,5.70
2018-03-28T02:06:50.763Z,5.60
2018-03-28T02:09:18.247Z,5.70
2018-03-28T02:11:45.763Z,5.70
2018-03-28T02:14:14.071Z,5.70
2018-03-28T02:16:41.594Z,5.60
2018-03-28T02:19:09.884Z,5.70
2018-03-28T02:21:38.166Z,5.70
2018-03-28T02:24:05.706Z,5.60
2018-03-28T02:26:33.989Z,5.70
2018-03-28T02:29:02.275Z,5.60
2018-03-28T02:31:29.831Z,5.60
2018-03-28T02:33:58.127Z,5.70
2018-03-28T02:36:25.702Z,5.60
2018-03-28T02:38:53.229Z,5.70
2018-03-28T02:41:21.556Z,5.70
2018-03-28T02:43:49.062Z,5.60
2018-03-28T02:46:16.593Z,5.70
2018-03-28T02:48:44.875Z,5.70
2018-03-28T02:51:12.433Z,5.70
2018-03-28T02:53:40.707Z,5.80
2018-03-28T02:56:09.016Z,5.80
2018-03-28T02:58:36.526Z,5.70
2018-03-28T03:01:04.053Z,5.80
2018-03-28T03:03:31.562Z,5.80
2018-03-28T03:05:59.846Z,5.90
2018-03-28T03:08:27.358Z,5.80
2018-03-28T03:10:54.902Z,5.90
2018-03-28T03:13:22.413Z,5.90
2018-03-28T03:15:50.713Z,6.00
2018-03-28T03:18:18.984Z,6.00
2018-03-28T03:20:47.262Z,6.00
2018-03-28T03:23:15.531Z,6.00
2018-03-28T03:25:43.821Z,6.00
2018-03-28T03:28:11.329Z,6.00
2018-03-28T03:30:38.870Z,6.10
2018-03-28T03:33:06.388Z,6.10
2018-03-28T03:35:34.678Z,6.10
2018-03-28T03:38:03.002Z,6.10
2018-03-28T03:40:30.528Z,6.00
2018-03-28T03:42:58.067Z,6.00
2018-03-28T03:45:26.350Z,6.10
2018-03-28T03:47:54.659Z,6.10
2018-03-28T03:50:22.157Z,6.00
2018-03-28T03:52:49.685Z,6.10
2018-03-28T03:55:17.193Z,6.10
2018-03-28T03:57:45.485Z,6.20
2018-03-28T04:00:13.758Z,6.20
2018-03-28T04:02:41.293Z,6.20
2018-03-28T04:05:08.797Z,6.20
2018-03-28T04:07:36.320Z,6.20
2018-03-28T04:10:03.836Z,6.20
2018-03-28T04:12:31.373Z,6.20
2018-03-28T04:14:58.890Z,6.20
2018-03-28T04:17:26.420Z,6.20
2018-03-28T04:19:53.927Z,6.20
2018-03-28T04:22:22.224Z,6.20
2018-03-28T04:24:50.490Z,6.20
2018-03-28T04:27:18.026Z,6.20
2018-03-28T04:29:45.534Z,6.20
2018-03-28T04:32:13.058Z,6.20
2018-03-28T04:34:41.346Z,6.20
2018-03-28T04:37:09.633Z,6.20
2018-03-28T04:39:37.151Z,6.20
2018-03-28T04:42:04.679Z,6.20
2018-03-28T04:44:32.178Z,6.20
2018-03-28T04:46:59.695Z,6.20
2018-03-28T04:49:27.214Z,6.20
2018-03-28T04:51:55.490Z,6.20
2018-03-28T04:54:23.861Z,6.20
2018-03-28T04:56:51.357Z,6.10
2018-03-28T04:59:18.874Z,6.20
2018-03-28T05:01:46.362Z,6.20
2018-03-28T05:04:14.726Z,6.20
2018-03-28T05:06:42.155Z,6.20
2018-03-28T05:09:09.688Z,6.20
2018-03-28T05:11:37.180Z,6.20
2018-03-28T05:14:04.710Z,6.20
2018-03-28T05:16:32.209Z,6.20
2018-03-28T05:18:59.726Z,6.20
2018-03-28T05:21:27.266Z,6.20
2018-03-28T05:23:54.808Z,6.20
2018-03-28T05:26:23.079Z,6.20
2018-03-28T05:28:52.094Z,6.10
2018-03-28T05:31:19.594Z,6.10
2018-03-28T05:33:47.118Z,6.20
2018-03-28T05:36:15.387Z,6.20
2018-03-28T05:38:43.670Z,6.20
2018-03-28T05:41:11.938Z,6.20
2018-03-28T05:43:40.225Z,6.20
2018-03-28T05:46:07.960Z,6.20
2018-03-28T05:48:35.483Z,6.20
2018-03-28T05:51:02.987Z,6.20
2018-03-28T05:53:31.263Z,6.20
2018-03-28T05:55:59.549Z,6.30
2018-03-28T05:58:27.818Z,6.30
2018-03-28T06:00:55.330Z,6.20
2018-03-28T06:03:23.597Z,6.30
2018-03-28T06:05:51.132Z,6.20
2018-03-28T06:08:19.411Z,6.30
2018-03-28T06:10:47.718Z,6.30
2018-03-28T06:13:15.222Z,6.30
2018-03-28T06:15:43.357Z,6.30
2018-03-28T06:18:10.858Z,6.30
2018-03-28T06:20:38.374Z,6.30
2018-03-28T06:23:05.880Z,6.30
2018-03-28T06:25:33.406Z,6.30
2018-03-28T06:28:00.903Z,6.30
2018-03-28T06:30:29.947Z,6.30
2018-03-28T06:32:57.447Z,6.30
2018-03-28T06:35:24.966Z,6.30
2018-03-28T06:37:52.464Z,6.30
2018-03-28T06:40:19.994Z,6.30
2018-03-28T06:42:48.733Z,6.40
2018-03-28T06:45:17.571Z,6.60
2018-03-28T06:47:45.091Z,6.50
2018-03-28T06:50:13.379Z,6.70
2018-03-28T06:52:41.651Z,6.70
2018-03-28T06:55:09.931Z,6.80
2018-03-28T06:57:38.199Z,6.90
2018-03-28T07:00:06.484Z,6.90
2018-03-28T07:02:33.987Z,6.90
2018-03-28T07:05:01.511Z,7.00
2018-03-28T07:07:29.791Z,7.20
2018-03-28T07:09:57.307Z,7.10
2018-03-28T07:12:24.817Z,7.20
2018-03-28T07:14:52.318Z,7.30
2018-03-28T07:17:19.832Z,7.30
2018-03-28T07:19:47.356Z,7.40
2018-03-28T07:22:14.881Z,7.50
2018-03-28T07:24:42.381Z,7.50
2018-03-28T07:27:09.898Z,7.60
2018-03-28T07:29:37.405Z,7.70
2018-03-28T07:32:05.686Z,7.70
2018-03-28T07:34:33.950Z,7.80
2018-03-28T07:37:02.993Z,7.70
2018-03-28T07:39:30.498Z,7.70
2018-03-28T07:41:58.033Z,7.80
2018-03-28T07:44:25.537Z,7.80
2018-03-28T07:46:53.814Z,7.90
2018-03-28T07:49:22.093Z,7.80
2018-03-28T07:51:50.370Z,7.90
2018-03-28T07:54:18.636Z,7.90
2018-03-28T07:56:46.155Z,7.80
2018-03-28T07:59:13.646Z,7.90
2018-03-28T08:01:41.157Z,7.90
2018-03-28T08:04:08.671Z,7.90
2018-03-28T08:06:36.192Z,7.90
2018-03-28T08:09:03.690Z,7.80
2018-03-28T08:11:31.208Z,7.80
2018-03-28T08:13:58.715Z,7.80
2018-03-28T08:16:26.984Z,7.80
2018-03-28T08:18:54.523Z,7.80
2018-03-28T08:21:22.025Z,7.80
2018-03-28T08:23:50.325Z,7.80
2018-03-28T08:26:17.822Z,7.80
2018-03-28T08:28:45.354Z,7.80
2018-03-28T08:31:12.862Z,7.80
2018-03-28T08:33:40.369Z,7.80
2018-03-28T08:36:07.874Z,7.80
2018-03-28T08:38:35.397Z,7.80
2018-03-28T08:41:02.929Z,7.80
2018-03-28T08:43:30.458Z,7.90
2018-03-28T08:45:57.967Z,7.90
2018-03-28T08:48:25.512Z,8.00
2018-03-28T08:50:53.012Z,8.10
2018-03-28T08:53:20.526Z,8.10
2018-03-28T08:55:48.788Z,8.30
2018-03-28T08:58:17.104Z,8.30
2018-03-28T09:00:44.594Z,8.30
2018-03-28T09:03:12.114Z,8.40
2018-03-28T09:05:39.616Z,8.50
2018-03-28T09:08:07.127Z,8.70
2018-03-28T09:10:34.633Z,8.80
2018-03-28T09:13:02.161Z,8.90
2018-03-28T09:15:29.666Z,9.00
2018-03-28T09:17:57.195Z,9.00
2018-03-28T09:20:24.707Z,9.10
2018-03-28T09:22:52.994Z,9.30
2018-03-28T09:25:21.251Z,9.30
2018-03-28T09:27:48.758Z,9.30
2018-03-28T09:30:16.274Z,9.40
2018-03-28T09:32:43.780Z,9.50
2018-03-28T09:35:12.141Z,9.60
2018-03-28T09:37:39.744Z,9.70
2018-03-28T09:40:07.274Z,9.80
2018-03-28T09:42:34.781Z,9.80
2018-03-28T09:45:02.309Z,10.00
2018-03-28T09:47:29.818Z,10.10
2018-03-28T09:49:58.103Z,10.40
2018-03-28T09:52:26.371Z,10.50
2018-03-28T09:54:54.663Z,10.50
2018-03-28T09:57:22.937Z,10.50
2018-03-28T09:59:51.224Z,10.50
2018-03-28T10:02:18.738Z,10.40
2018-03-28T10:04:49.206Z,10.50
2018-03-28T10:07:17.479Z,10.40
2018-03-28T10:09:45.777Z,10.50
2018-03-28T10:12:13.291Z,10.40
2018-03-28T10:14:40.811Z,10.40
2018-03-28T10:17:08.338Z,10.50
2018-03-28T10:19:36.622Z,10.60
2018-03-28T10:22:04.895Z,10.70
2018-03-28T10:24:33.173Z,10.70
2018-03-28T10:27:01.443Z,10.60
2018-03-28T10:29:33.295Z,10.70
2018-03-28T10:32:01.572Z,10.70
2018-03-28T10:34:29.866Z,10.60
2018-03-28T10:36:58.142Z,10.50
2018-03-28T10:39:26.438Z,10.50
2018-03-28T10:41:53.938Z,10.50
2018-03-28T10:44:21.477Z,10.50
2018-03-28T10:46:48.982Z,10.40
2018-03-28T10:49:16.506Z,10.40
2018-03-28T10:51:44.039Z,10.50
2018-03-28T10:54:11.543Z,10.50
2018-03-28T10:56:39.069Z,10.50
2018-03-28T10:59:06.587Z,10.50
2018-03-28T11:01:34.110Z,10.60
2018-03-28T11:04:01.613Z,10.60
2018-03-28T11:06:29.904Z,10.70
2018-03-28T11:08:58.178Z,10.80
2018-03-28T11:11:26.498Z,10.70
2018-03-28T11:13:54.007Z,10.60
2018-03-28T11:16:22.302Z,10.60
2018-03-28T11:18:49.806Z,10.50
2018-03-28T11:21:17.323Z,10.60
2018-03-28T11:23:44.825Z,10.70
2018-03-28T11:26:12.350Z,10.60
2018-03-28T11:28:39.855Z,10.60
2018-03-28T11:31:07.374Z,10.60
2018-03-28T11:33:34.878Z,10.70
2018-03-28T11:36:02.407Z,10.70
2018-03-28T11:38:29.922Z,10.80
2018-03-28T11:40:58.218Z,10.80
2018-03-28T11:43:25.721Z,10.80
2018-03-28T11:45:53.243Z,10.80
2018-03-28T11:48:20.769Z,10.80
2018-03-28T11:50:49.068Z,10.80
2018-03-28T11:53:17.344Z,10.80
2018-03-28T11:55:44.854Z,10.70
2018-03-28T11:58:12.385Z,10.80
2018-03-28T12:00:39.886Z,10.80
2018-03-28T12:03:07.434Z,10.90
2018-03-28T12:05:34.944Z,10.80
2018-03-28T12:08:03.230Z,10.80
2018-03-28T12:10:30.746Z,10.80
2018-03-28T12:12:58.268Z,10.80
2018-03-28T12:15:25.767Z,10.90
2018-03-28T12:17:53.302Z,10.90
2018-03-28T12:20:20.797Z,11.00
2018-03-28T12:22:49.090Z,11.00
2018-03-28T12:25:17.362Z,11.10
2018-03-28T12:27:45.648Z,11.10
2018-03-28T12:30:13.914Z,11.10
2018-03-28T12:32:41.432Z,11.10
2018-03-28T12:35:08.942Z,11.10
2018-03-28T12:37:37.236Z,11.10
2018-03-28T12:40:05.510Z,11.10
2018-03-28T12:42:33.039Z,11.00
2018-03-28T12:45:00.543Z,11.10
2018-03-28T12:47:28.070Z,11.10
2018-03-28T12:49:56.543Z,11.20
2018-03-28T12:52:24.650Z,11.30
2018-03-28T12:54:52.162Z,11.20
2018-03-28T12:57:19.666Z,11.30
2018-03-28T12:59:47.977Z,11.30
2018-03-28T13:02:15.642Z,11.20
2018-03-28T13:04:44.157Z,11.30
2018-03-28T13:07:11.662Z,11.20
2018-03-28T13:09:39.209Z,11.20
2018-03-28T13:12:06.711Z,11.20
2018-03-28T13:14:34.239Z,11.20
2018-03-28T13:17:01.777Z,11.30
2018-03-28T13:19:29.291Z,11.30
2018-03-28T13:21:57.187Z,11.20
2018-03-28T13:24:26.219Z,11.20
2018-03-28T13:26:53.727Z,11.20
2018-03-28T13:29:21.275Z,11.30
2018-03-28T13:31:48.795Z,11.30
2018-03-28T13:34:16.326Z,11.30
2018-03-28T13:36:43.849Z,11.30
2018-03-28T13:39:11.379Z,11.30
2018-03-28T13:41:38.894Z,11.30
2018-03-28T13:44:06.424Z,11.30
2018-03-28T13:46:33.937Z,11.30
2018-03-28T13:49:02.249Z,11.30
2018-03-28T13:51:29.770Z,11.20
2018-03-28T13:53:58.067Z,11.10
2018-03-28T13:56:25.574Z,11.00
2018-03-28T13:58:53.115Z,11.00
2018-03-28T14:01:20.626Z,11.00
2018-03-28T14:03:48.147Z,10.90
2018-03-28T14:06:15.671Z,10.90
2018-03-28T14:08:43.226Z,10.70
2018-03-28T14:11:10.749Z,10.60
2018-03-28T14:13:38.262Z,10.50
2018-03-28T14:16:05.790Z,10.40
2018-03-28T14:18:34.087Z,10.20
2018-03-28T14:21:02.378Z,10.20
2018-03-28T14:23:29.893Z,10.20
2018-03-28T14:25:57.415Z,10.10
2018-03-28T14:28:24.928Z,10.10
2018-03-28T14:30:53.222Z,10.10
2018-03-28T14:33:20.747Z,10.00
2018-03-28T14:35:49.071Z,10.00
2018-03-28T14:38:16.582Z,10.00
2018-03-28T14:40:44.102Z,10.00
2018-03-28T14:43:11.611Z,10.00
2018-03-28T14:45:40.649Z,9.80
2018-03-28T14:48:08.167Z,9.90
2018-03-28T14:50:35.699Z,9.90
2018-03-28T14:53:03.221Z,10.00
2018-03-28T14:55:30.779Z,10.00
2018-03-28T14:57:58.281Z,10.00
2018-03-28T15:00:25.868Z,9.90
2018-03-28T15:02:54.151Z,9.90
2018-03-28T15:05:22.460Z,9.90
2018-03-28T15:07:49.982Z,9.90
2018-03-28T15:10:18.237Z,9.90
2018-03-28T15:12:45.975Z,9.90
2018-03-28T15:15:13.510Z,9.80
2018-03-28T15:17:41.084Z,9.80
2018-03-28T15:20:08.595Z,9.80
2018-03-28T15:22:36.923Z,9.80
2018-03-28T15:25:04.431Z,9.70
2018-03-28T15:27:31.957Z,9.70
2018-03-28T15:30:01.395Z,9.70
2018-03-28T15:32:28.923Z,9.60
2018-03-28T15:34:56.422Z,9.60
2018-03-28T15:37:23.935Z,9.60
2018-03-28T15:39:51.443Z,9.50
2018-03-28T15:42:19.741Z,9.50
2018-03-28T15:44:48.002Z,9.40
2018-03-28T15:47:15.522Z,9.40
2018-03-28T15:49:43.018Z,9.40
2018-03-28T15:52:10.541Z,9.40
2018-03-28T15:54:38.042Z,9.30
2018-03-28T15:57:06.332Z,9.30
2018-03-28T15:59:34.599Z,9.30
2018-03-28T16:02:02.117Z,9.30
2018-03-28T16:04:29.630Z,9.30
2018-03-28T16:06:57.919Z,9.30
2018-03-28T16:09:26.198Z,9.20
2018-03-28T16:11:53.719Z,9.20
2018-03-28T16:14:21.226Z,9.20
2018-03-28T16:16:48.746Z,9.20
2018-03-28T16:19:16.256Z,9.20
2018-03-28T16:21:43.762Z,9.20
2018-03-28T16:24:11.262Z,9.20
2018-03-28T16:26:38.774Z,9.20
2018-03-28T16:29:06.299Z,9.20
2018-03-28T16:31:33.794Z,9.20
2018-03-28T16:34:01.313Z,9.20
2018-03-28T16:36:28.814Z,9.20
2018-03-28T16:38:56.330Z,9.10
2018-03-28T16:41:23.826Z,9.10
2018-03-28T16:43:51.339Z,9.10
2018-03-28T16:46:18.846Z,9.00
2018-03-28T16:48:46.369Z,9.00
2018-03-28T16:51:13.882Z,9.00
2018-03-28T16:53:42.185Z,9.00
2018-03-28T16:56:10.450Z,9.00
2018-03-28T16:58:37.969Z,8.90
2018-03-28T17:01:05.472Z,9.00
2018-03-28T17:03:33.754Z,8.90
2018-03-28T17:06:02.009Z,8.90
2018-03-28T17:08:29.520Z,8.90
2018-03-28T17:10:57.018Z,8.90
2018-03-28T17:13:24.523Z,8.90
2018-03-28T17:15:52.033Z,8.80
2018-03-28T17:18:19.547Z,8.80
2018-03-28T17:20:47.050Z,8.80
2018-03-28T17:23:14.571Z,8.70
2018-03-28T17:25:42.071Z,8.70
2018-03-28T17:28:09.585Z,8.70
2018-03-28T17:30:37.078Z,8.70
2018-03-28T17:33:04.596Z,8.70
2018-03-28T17:35:32.100Z,8.60
2018-03-28T17:37:59.620Z,8.60
2018-03-28T17:40:27.150Z,8.60
2018-03-28T17:42:54.740Z,8.60
2018-03-28T17:45:22.273Z,8.60
2018-03-28T17:47:50.628Z,8.50
2018-03-28T17:50:18.131Z,8.50
2018-03-28T17:52:45.673Z,8.50
2018-03-28T17:55:13.974Z,8.50
2018-03-28T17:57:41.499Z,8.50
2018-03-28T18:00:09.030Z,8.50
2018-03-28T18:02:36.560Z,8.50
2018-03-28T18:05:04.131Z,8.50
2018-03-28T18:07:31.644Z,8.50
2018-03-28T18:09:59.162Z,8.40
2018-03-28T18:12:26.658Z,8.50
2018-03-28T18:14:54.191Z,8.50
2018-03-28T18:17:21.701Z,8.50
2018-03-28T18:19:50.052Z,8.50
2018-03-28T18:22:18.355Z,8.50
2018-03-28T18:24:45.887Z,8.40
2018-03-28T18:27:13.390Z,8.50
2018-03-28T18:29:40.920Z,8.50
2018-03-28T18:32:08.492Z,8.50
2018-03-28T18:34:36.790Z,8.60
2018-03-28T18:37:05.063Z,8.70
2018-03-28T18:39:32.589Z,8.60
2018-03-28T18:42:00.099Z,8.60
2018-03-28T18:44:27.654Z,8.70
2018-03-28T18:46:55.162Z,8.70
2018-03-28T18:49:22.689Z,8.70
2018-03-28T18:51:50.190Z,8.60
2018-03-28T18:54:17.714Z,8.70
2018-03-28T18:56:45.216Z,8.70
2018-03-28T18:59:12.747Z,8.70
2018-03-28T19:01:40.305Z,8.70
2018-03-28T19:04:07.806Z,8.70
2018-03-28T19:06:36.078Z,8.70
2018-03-28T19:09:04.337Z,8.60
2018-03-28T19:11:31.848Z,8.60
2018-03-28T19:13:59.378Z,8.60
2018-03-28T19:16:27.660Z,8.60
2018-03-28T19:18:56.299Z,8.60
2018-03-28T19:21:24.644Z,8.50
2018-03-28T19:23:52.748Z,8.50
2018-03-28T19:26:20.710Z,8.50
2018-03-28T19:28:48.707Z,8.50
2018-03-28T19:31:16.706Z,8.50
2018-03-28T19:33:44.620Z,8.40
2018-03-28T19:36:12.660Z,8.40
2018-03-28T19:38:40.526Z,8.40
2018-03-28T19:41:08.582Z,8.30
2018-03-28T19:43:36.279Z,8.30
2018-03-28T19:46:03.807Z,8.30
2018-03-28T19:48:33.342Z,8.30
2018-03-28T19:51:01.097Z,8.30
2018-03-28T19:53:29.725Z,8.20
2018-03-28T19:55:57.671Z,8.20
2018-03-28T19:58:25.403Z,8.30
2018-03-28T20:00:54.075Z,8.30
2018-03-28T20:03:21.823Z,8.20
2018-03-28T20:05:50.395Z,8.30
2018-03-28T20:08:18.335Z,8.20
2018-03-28T20:10:46.187Z,8.30
2018-03-28T20:13:13.935Z,8.30
2018-03-28T20:15:41.767Z,8.30
2018-03-28T20:18:09.605Z,8.20
2018-03-28T20:20:37.416Z,8.30
2018-03-28T20:23:05.181Z,8.30
2018-03-28T20:25:33.718Z,8.30
2018-03-28T20:28:01.454Z,8.20
2018-03-28T20:30:29.273Z,8.30
2018-03-28T20:32:57.164Z,8.30
2018-03-28T20:35:25.207Z,8.20
2018-03-28T20:37:53.012Z,8.20
2018-03-28T20:40:20.771Z,8.20
2018-03-28T20:42:48.380Z,8.20
2018-03-28T20:45:16.268Z,8.20
2018-03-28T20:47:43.975Z,8.20
2018-03-28T20:50:11.661Z,8.20
2018-03-28T20:52:40.068Z,8.10
2018-03-28T20:55:07.943Z,8.10
2018-03-28T20:57:36.482Z,8.20
2018-03-28T21:00:04.267Z,8.10
2018-03-28T21:02:32.869Z,8.20
2018-03-28T21:05:01.575Z,8.20
2018-03-28T21:07:29.440Z,8.20
2018-03-28T21:09:57.304Z,8.20
2018-03-28T21:12:25.183Z,8.20
2018-03-28T21:14:53.896Z,8.20
2018-03-28T21:17:21.835Z,8.20
2018-03-28T21:19:49.740Z,8.20
2018-03-28T21:22:17.619Z,8.10
2018-03-28T21:24:45.577Z,8.00
2018-03-28T21:27:13.552Z,8.00
2018-03-28T21:29:41.580Z,7.90
2018-03-28T21:32:10.234Z,7.90
2018-03-28T21:34:39.512Z,7.80
2018-03-28T21:37:07.403Z,7.80
2018-03-28T21:39:35.991Z,7.80
2018-03-28T21:42:04.579Z,7.80
2018-03-28T21:44:32.504Z,7.70
2018-03-28T21:47:00.388Z,7.70
2018-03-28T21:49:29.100Z,7.70
2018-03-28T21:51:57.839Z,7.70
2018-03-28T21:54:25.698Z,7.70
2018-03-28T21:56:53.623Z,7.70
2018-03-28T21:59:22.331Z,7.70
2018-03-28T22:01:50.198Z,7.60
2018-03-28T22:04:18.923Z,7.70
2018-03-28T22:06:46.888Z,7.60
2018-03-28T22:09:14.776Z,7.70
2018-03-28T22:11:42.690Z,7.70
2018-03-28T22:14:10.591Z,7.70
2018-03-28T22:16:38.468Z,7.70
2018-03-28T22:19:06.333Z,7.60
2018-03-28T22:21:34.315Z,7.60
2018-03-28T22:24:02.207Z,7.60
2018-03-28T22:26:30.924Z,7.50
2018-03-28T22:28:58.737Z,7.50
2018-03-28T22:31:26.583Z,7.40
2018-03-28T22:33:54.928Z,7.40
2018-03-28T22:36:23.626Z,7.30
2018-03-28T22:38:51.506Z,7.30
2018-03-28T22:41:20.351Z,7.20
2018-03-28T22:43:49.094Z,7.10
2018-03-28T22:46:17.077Z,7.00
2018-03-28T22:48:44.974Z,7.00
2018-03-28T22:51:12.916Z,6.90
2018-03-28T22:53:40.804Z,6.80
2018-03-28T22:56:08.679Z,6.70
2018-03-28T22:58:36.581Z,6.60
2018-03-28T23:01:04.472Z,6.50
2018-03-28T23:03:32.983Z,6.40
2018-03-28T23:06:00.833Z,6.30
2018-03-28T23:08:29.575Z,6.20
2018-03-28T23:10:57.296Z,6.20
2018-03-28T23:13:25.938Z,6.00
2018-03-28T23:15:53.975Z,5.90
2018-03-28T23:18:21.853Z,5.90
2018-03-28T23:20:50.527Z,5.80
2018-03-28T23:23:19.219Z,5.70
2018-03-28T23:25:47.124Z,5.70
2018-03-28T23:28:15.012Z,5.70
2018-03-28T23:30:42.858Z,5.70
2018-03-28T23:33:10.631Z,5.60
2018-03-28T23:35:38.344Z,5.60
2018-03-28T23:38:06.214Z,5.50
2018-03-28T23:40:34.027Z,5.50
2018-03-28T23:43:01.941Z,5.50
2018-03-28T23:45:29.894Z,5.50
2018-03-28T23:47:57.655Z,5.50
2018-03-28T23:50:26.166Z,5.40
2018-03-28T23:52:53.975Z,5.40
2018-03-28T23:55:22.705Z,5.40
2018-03-28T23:57:51.162Z,5.40
